Time;durP1;ratioP1;P1;durP2;ratioP2;P2;SDS_P1;SDS_P2;PMS_P1;PMS_P2;Temp;Humidity;BMP_temperature;BMP_pressure;BME280_temperature;BME280_humidity;BME280_pressure;Samples;Min_cycle;Max_cycle;Signal;HPM_P1;HPM_P2
2022/04/30 00:00:12;;;;;;;20.90;14.65;;;9.10;95.00;;;;;;5180384;28;20056;-76
2022/04/30 00:02:44;;;;;;;18.52;14.57;;;9.10;95.40;;;;;;5190861;28;20056;-76
2022/04/30 00:05:18;;;;;;;22.00;15.57;;;9.10;95.70;;;;;;5178832;28;20049;-76
2022/04/30 00:07:50;;;;;;;21.98;14.73;;;9.00;96.70;;;;;;5176734;28;20046;-76
2022/04/30 00:10:23;;;;;;;27.25;15.30;;;9.00;97.20;;;;;;5157997;28;20041;-76
2022/04/30 00:12:55;;;;;;;20.98;14.88;;;9.00;97.10;;;;;;5182442;28;20041;-77
2022/04/30 00:15:28;;;;;;;24.85;16.00;;;9.00;96.80;;;;;;5180205;28;20500;-75
2022/04/30 00:18:01;;;;;;;21.27;15.93;;;8.90;97.00;;;;;;5180829;28;20067;-76
2022/04/30 00:20:36;;;;;;;25.65;14.80;;;8.90;97.40;;;;;;5179348;28;20129;-74
2022/04/30 00:23:19;;;;;;;22.85;15.50;;;8.90;97.60;;;;;;5181096;28;20053;-76
2022/04/30 00:25:53;;;;;;;25.05;16.40;;;8.90;98.00;;;;;;5175506;28;20509;-75
2022/04/30 00:28:26;;;;;;;23.42;16.40;;;8.90;98.50;;;;;;5180893;28;20053;-76
2022/04/30 00:30:59;;;;;;;22.45;16.85;;;8.80;99.10;;;;;;5180858;28;20038;-76
2022/04/30 00:33:32;;;;;;;22.13;16.33;;;8.80;99.90;;;;;;5174486;28;20054;-77
2022/04/30 00:36:05;;;;;;;27.60;16.58;;;8.80;99.90;;;;;;5172060;28;20125;-75
2022/04/30 00:38:37;;;;;;;25.77;16.07;;;8.90;99.90;;;;;;5180511;28;20561;-77
2022/04/30 00:41:10;;;;;;;23.38;14.75;;;8.90;99.00;;;;;;5181892;28;20300;-76
2022/04/30 00:43:48;;;;;;;23.23;16.67;;;8.90;99.30;;;;;;5191759;28;20053;-76
2022/04/30 00:46:22;;;;;;;24.00;15.98;;;8.80;99.90;;;;;;5191472;28;20042;-76
2022/04/30 00:48:57;;;;;;;24.10;14.90;;;8.80;99.90;;;;;;5172883;28;20049;-76
2022/04/30 00:51:29;;;;;;;23.52;14.98;;;8.80;99.90;;;;;;5176840;28;20049;-76
2022/04/30 00:54:05;;;;;;;20.67;13.95;;;8.80;99.90;;;;;;5172457;28;20048;-74
2022/04/30 00:56:57;;;;;;;18.58;14.13;;;8.70;99.90;;;;;;5165279;28;20084;-75
2022/04/30 00:59:31;;;;;;;20.48;14.15;;;8.80;99.90;;;;;;5171352;28;20045;-77
2022/04/30 01:02:03;;;;;;;21.52;14.88;;;8.80;99.90;;;;;;5179092;28;20046;-76
2022/04/30 01:04:56;;;;;;;20.13;13.68;;;8.80;99.70;;;;;;5184177;28;20049;-76
2022/04/30 01:07:30;;;;;;;20.40;13.15;;;8.80;99.80;;;;;;5188738;28;20112;-75
2022/04/30 01:10:03;;;;;;;19.88;13.93;;;8.80;99.40;;;;;;5202880;28;20136;-76
2022/04/30 01:12:36;;;;;;;18.38;13.98;;;8.70;99.70;;;;;;5183555;28;20065;-75
2022/04/30 01:15:11;;;;;;;20.40;14.13;;;8.70;99.90;;;;;;5169316;28;20050;-74
2022/04/30 01:17:44;;;;;;;18.38;13.55;;;8.70;99.90;;;;;;5180452;28;20061;-75
2022/04/30 01:20:17;;;;;;;23.23;14.47;;;8.60;99.90;;;;;;5182971;28;20050;-76
2022/04/30 01:22:57;;;;;;;19.02;13.82;;;8.60;99.90;;;;;;5183203;28;20056;-75
2022/04/30 01:25:31;;;;;;;21.13;13.93;;;8.60;99.90;;;;;;5184951;28;20049;-76
2022/04/30 01:28:04;;;;;;;20.42;14.07;;;8.50;99.90;;;;;;5183128;28;20056;-76
2022/04/30 01:30:36;;;;;;;17.88;13.27;;;8.40;99.90;;;;;;5182439;28;20918;-75
2022/04/30 01:39:01;;;;;;;19.17;13.88;;;8.30;99.90;;;;;;5188490;28;20049;-75
2022/04/30 01:41:35;;;;;;;16.35;12.50;;;8.20;99.90;;;;;;5187613;28;20524;-76
2022/04/30 01:44:09;;;;;;;17.85;12.90;;;8.20;99.90;;;;;;5181161;28;20072;-75
2022/04/30 01:46:41;;;;;;;22.42;12.95;;;8.10;99.90;;;;;;5182572;28;20064;-77
2022/04/30 01:49:16;;;;;;;17.17;12.82;;;8.00;99.90;;;;;;5183168;28;20041;-76
2022/04/30 01:51:50;;;;;;;19.27;13.10;;;8.10;99.90;;;;;;5187743;28;20045;-76
2022/04/30 01:54:22;;;;;;;16.08;12.77;;;8.00;99.90;;;;;;5191456;28;20054;-76
2022/04/30 01:56:54;;;;;;;19.42;12.32;;;8.00;99.90;;;;;;5183813;28;20520;-76
2022/04/30 01:59:28;;;;;;;17.98;12.88;;;8.00;99.90;;;;;;5157124;28;20649;-75
2022/04/30 02:02:02;;;;;;;21.40;12.63;;;8.00;99.90;;;;;;5179310;28;20231;-76
2022/04/30 02:04:35;;;;;;;21.08;12.40;;;8.00;99.90;;;;;;5175600;28;20054;-75
2022/04/30 02:07:08;;;;;;;17.02;12.82;;;8.00;99.90;;;;;;5181669;28;20050;-76
2022/04/30 02:09:41;;;;;;;18.20;13.05;;;8.00;99.90;;;;;;5167178;28;20056;-76
2022/04/30 02:12:13;;;;;;;21.80;12.57;;;8.00;99.90;;;;;;5186516;28;20045;-76
2022/04/30 02:14:52;;;;;;;18.20;13.00;;;8.00;99.90;;;;;;5180764;28;20045;-77
2022/04/30 02:17:26;;;;;;;20.17;12.85;;;8.00;99.90;;;;;;5179214;28;20580;-76
2022/04/30 02:20:19;;;;;;;19.08;13.27;;;8.00;99.90;;;;;;5183812;28;20064;-76
2022/04/30 02:22:54;;;;;;;15.80;12.35;;;8.00;99.90;;;;;;5177940;28;20037;-76
2022/04/30 02:25:28;;;;;;;18.55;13.20;;;7.90;99.90;;;;;;5176633;28;20600;-77
2022/04/30 02:28:04;;;;;;;17.05;12.70;;;7.90;99.90;;;;;;5180465;28;20924;-77
2022/04/30 02:30:38;;;;;;;19.20;13.07;;;7.90;99.90;;;;;;5168621;28;20484;-76
2022/04/30 02:33:12;;;;;;;18.67;13.70;;;7.90;99.90;;;;;;5179403;28;20060;-76
2022/04/30 02:35:44;;;;;;;18.08;13.30;;;7.90;99.90;;;;;;5188568;28;20081;-76
2022/04/30 02:38:19;;;;;;;18.83;12.77;;;7.80;99.90;;;;;;5186982;28;20050;-76
2022/04/30 02:40:52;;;;;;;17.73;12.95;;;7.70;99.90;;;;;;5179544;28;20048;-76
2022/04/30 02:43:28;;;;;;;18.67;12.93;;;7.70;99.90;;;;;;5182991;28;20945;-75
2022/04/30 02:46:00;;;;;;;17.70;12.38;;;7.80;99.90;;;;;;5182672;28;20052;-76
2022/04/30 02:48:33;;;;;;;19.27;12.70;;;7.70;99.90;;;;;;5185573;28;20098;-76
2022/04/30 02:51:05;;;;;;;18.90;12.63;;;7.70;99.90;;;;;;5180669;28;20148;-77
2022/04/30 02:53:38;;;;;;;19.13;12.63;;;7.60;99.90;;;;;;5183520;28;20045;-77
2022/04/30 02:56:11;;;;;;;15.00;12.25;;;7.50;99.90;;;;;;5181145;28;20136;-76
2022/04/30 03:01:35;;;;;;;18.38;12.55;;;7.50;99.90;;;;;;5165846;28;20120;-76
2022/04/30 03:04:17;;;;;;;17.33;13.47;;;7.40;99.90;;;;;;5179532;28;20068;-76
2022/04/30 03:06:50;;;;;;;19.88;13.85;;;7.30;99.90;;;;;;5180020;28;20056;-76
2022/04/30 03:09:22;;;;;;;18.85;12.57;;;7.20;99.90;;;;;;5180146;28;20358;-76
2022/04/30 03:11:55;;;;;;;21.20;13.50;;;7.10;99.90;;;;;;5156704;28;20046;-76
2022/04/30 03:14:27;;;;;;;17.75;12.48;;;7.10;99.90;;;;;;5175674;28;20046;-75
2022/04/30 03:22:42;;;;;;;23.10;13.07;;;7.20;99.90;;;;;;5179716;28;20060;-75
2022/04/30 03:25:16;;;;;;;14.38;11.35;;;7.10;99.90;;;;;;5174117;28;20057;-74
2022/04/30 03:27:49;;;;;;;19.63;12.70;;;7.20;99.90;;;;;;5172054;28;20061;-75
2022/04/30 03:30:22;;;;;;;20.42;13.23;;;7.20;99.90;;;;;;5159407;28;20054;-76
2022/04/30 03:32:55;;;;;;;20.25;13.18;;;7.20;99.90;;;;;;5172065;28;20085;-75
2022/04/30 03:35:28;;;;;;;14.98;12.13;;;7.10;99.90;;;;;;5177753;28;20056;-75
2022/04/30 03:38:00;;;;;;;16.88;12.25;;;7.20;99.90;;;;;;5181356;28;20068;-77
2022/04/30 03:40:34;;;;;;;20.02;13.07;;;7.10;99.90;;;;;;5175605;28;20076;-77
2022/04/30 03:43:07;;;;;;;16.52;12.70;;;7.10;99.90;;;;;;5174925;28;20153;-76
2022/04/30 03:45:41;;;;;;;17.60;11.77;;;7.00;99.90;;;;;;5176996;28;20080;-77
2022/04/30 03:48:14;;;;;;;19.77;12.95;;;7.10;99.90;;;;;;5161105;28;20049;-77
2022/04/30 03:50:47;;;;;;;18.58;12.43;;;7.10;99.90;;;;;;5174627;28;20037;-77
2022/04/30 03:53:19;;;;;;;18.63;12.65;;;7.10;99.90;;;;;;5175355;28;20048;-76
2022/04/30 03:55:52;;;;;;;20.70;12.90;;;7.10;99.90;;;;;;5179978;28;20046;-77
2022/04/30 03:58:24;;;;;;;18.67;12.77;;;7.10;99.90;;;;;;5183164;28;20536;-76
2022/04/30 04:00:57;;;;;;;17.77;12.77;;;7.00;99.90;;;;;;5174478;28;20299;-75
2022/04/30 04:03:30;;;;;;;19.67;13.60;;;7.00;99.90;;;;;;5175239;28;20423;-75
2022/04/30 04:06:02;;;;;;;18.35;14.23;;;7.00;99.90;;;;;;5181329;28;20057;-75
2022/04/30 04:08:35;;;;;;;17.83;13.48;;;6.90;99.90;;;;;;5171380;28;20682;-74
2022/04/30 04:11:13;;;;;;;18.20;12.10;;;6.80;99.90;;;;;;5163352;28;20050;-75
2022/04/30 04:19:30;;;;;;;20.35;13.52;;;7.00;99.90;;;;;;5166995;28;20084;-77
2022/04/30 04:22:03;;;;;;;16.33;12.20;;;6.90;99.90;;;;;;5165462;28;20045;-76
2022/04/30 04:27:29;;;;;;;17.98;13.18;;;7.00;99.90;;;;;;5170821;28;20299;-76
2022/04/30 04:30:01;;;;;;;16.33;12.73;;;7.10;99.90;;;;;;5173501;28;20050;-76
2022/04/30 04:32:33;;;;;;;18.90;13.90;;;7.20;99.90;;;;;;5172592;28;20065;-76
2022/04/30 04:35:06;;;;;;;20.52;13.57;;;7.20;99.90;;;;;;5171951;28;20417;-76
2022/04/30 04:37:39;;;;;;;16.25;12.77;;;7.20;99.90;;;;;;5174352;28;20057;-75
2022/04/30 04:40:13;;;;;;;27.55;13.35;;;7.30;99.90;;;;;;5168111;28;20053;-77
2022/04/30 04:42:46;;;;;;;20.58;13.88;;;7.40;99.90;;;;;;5172403;28;20049;-77
2022/04/30 04:45:18;;;;;;;19.23;11.87;;;7.40;99.90;;;;;;5164200;28;20049;-76
2022/04/30 04:47:51;;;;;;;21.13;11.90;;;7.50;99.90;;;;;;5177212;28;20041;-76
2022/04/30 04:50:24;;;;;;;19.48;12.35;;;7.80;99.90;;;;;;5159850;28;20045;-76
2022/04/30 04:52:56;;;;;;;18.33;13.95;;;7.90;99.90;;;;;;5152780;28;20049;-76
2022/04/30 04:55:29;;;;;;;17.98;13.60;;;7.90;99.90;;;;;;5178539;28;20045;-77
2022/04/30 04:58:02;;;;;;;19.77;12.75;;;7.90;99.90;;;;;;5171963;28;20515;-76
2022/04/30 05:00:34;;;;;;;20.75;13.70;;;7.90;99.90;;;;;;5156953;28;20988;-77
2022/04/30 05:03:07;;;;;;;18.58;13.00;;;8.00;99.90;;;;;;5169619;28;20113;-77
2022/04/30 05:05:39;;;;;;;16.85;12.93;;;8.00;99.90;;;;;;5170081;28;20517;-76
2022/04/30 05:08:12;;;;;;;18.63;13.77;;;8.10;99.90;;;;;;5172301;28;20920;-77
2022/04/30 05:10:44;;;;;;;25.40;13.75;;;8.10;99.90;;;;;;5172590;28;20041;-77
2022/04/30 05:13:17;;;;;;;20.65;14.02;;;8.10;99.90;;;;;;5174213;28;20536;-77
2022/04/30 05:15:50;;;;;;;16.80;11.48;;;8.20;99.90;;;;;;5173760;28;20041;-77
2022/04/30 05:18:22;;;;;;;16.25;12.20;;;8.30;99.90;;;;;;5170077;28;20042;-76
2022/04/30 05:20:55;;;;;;;15.45;12.90;;;8.40;99.90;;;;;;5169324;28;22060;-76
2022/04/30 05:23:27;;;;;;;23.27;13.13;;;8.40;99.90;;;;;;5170866;28;20501;-77
2022/04/30 05:26:00;;;;;;;20.60;13.80;;;8.60;99.90;;;;;;5179404;28;20054;-77
2022/04/30 05:28:32;;;;;;;18.67;13.27;;;8.60;99.90;;;;;;5183550;28;20054;-77
2022/04/30 05:31:06;;;;;;;20.65;13.40;;;8.70;99.90;;;;;;5157025;28;20049;-75
2022/04/30 05:33:38;;;;;;;17.52;13.30;;;8.70;99.90;;;;;;5181351;28;20048;-75
2022/04/30 05:36:10;;;;;;;16.70;12.07;;;8.80;99.90;;;;;;5175712;28;20049;-78
2022/04/30 05:38:43;;;;;;;21.08;12.07;;;8.90;99.90;;;;;;5173944;28;20147;-75
2022/04/30 05:41:16;;;;;;;19.80;11.82;;;9.00;99.90;;;;;;5182268;28;20072;-75
2022/04/30 05:43:48;;;;;;;17.00;11.73;;;9.00;99.90;;;;;;5184523;28;20991;-75
2022/04/30 05:46:21;;;;;;;15.57;10.68;;;9.10;99.90;;;;;;5191097;28;20055;-75
2022/04/30 05:48:53;;;;;;;18.50;11.60;;;9.10;99.90;;;;;;5159322;28;20555;-76
2022/04/30 05:51:26;;;;;;;14.73;10.90;;;9.10;99.90;;;;;;5163171;28;20046;-75
2022/04/30 05:53:58;;;;;;;15.55;10.65;;;9.10;99.90;;;;;;5157272;28;20041;-75
2022/04/30 05:56:31;;;;;;;14.20;11.13;;;9.10;99.90;;;;;;5162293;28;20504;-77
2022/04/30 05:59:03;;;;;;;15.35;10.52;;;9.10;99.90;;;;;;5152473;28;20052;-75
2022/04/30 06:01:36;;;;;;;15.55;11.45;;;9.10;99.90;;;;;;5163386;28;20049;-76
2022/04/30 06:04:09;;;;;;;17.33;12.23;;;9.10;99.90;;;;;;5169619;28;20690;-75
2022/04/30 06:06:41;;;;;;;13.60;11.48;;;9.10;99.90;;;;;;5152270;28;20056;-74
2022/04/30 06:09:14;;;;;;;15.27;12.38;;;9.00;99.90;;;;;;5145294;28;20054;-74
2022/04/30 06:11:47;;;;;;;15.00;11.70;;;9.00;99.90;;;;;;5158263;28;20602;-73
2022/04/30 06:14:19;;;;;;;22.63;13.15;;;9.10;99.90;;;;;;5145869;28;20136;-75
2022/04/30 06:16:52;;;;;;;16.67;12.65;;;9.20;99.90;;;;;;5165962;28;20050;-75
2022/04/30 06:19:25;;;;;;;19.20;12.82;;;9.30;99.60;;;;;;5148011;28;20045;-75
2022/04/30 06:21:57;;;;;;;26.58;13.85;;;9.40;99.20;;;;;;5149823;28;20053;-76
2022/04/30 06:24:29;;;;;;;24.38;13.90;;;9.50;98.60;;;;;;5161747;28;20049;-77
2022/04/30 06:27:02;;;;;;;21.58;14.82;;;9.50;97.60;;;;;;5153433;28;20156;-76
2022/04/30 06:29:35;;;;;;;20.00;14.93;;;9.70;97.40;;;;;;5140528;28;20607;-76
2022/04/30 06:32:08;;;;;;;19.73;14.30;;;9.90;96.60;;;;;;5152429;28;20045;-76
2022/04/30 06:34:41;;;;;;;;;;;10.00;95.10;;;;;;5155223;28;20965;-76
2022/04/30 06:37:13;;;;;;;18.65;13.98;;;10.10;95.90;;;;;;5138643;28;20358;-76
2022/04/30 06:39:47;;;;;;;21.40;14.52;;;10.40;94.50;;;;;;5153463;28;20507;-76
2022/04/30 06:42:19;;;;;;;20.98;16.73;;;10.60;93.30;;;;;;5139748;28;20128;-77
2022/04/30 06:44:52;;;;;;;26.23;15.77;;;10.80;92.00;;;;;;5149347;28;20061;-76
2022/04/30 06:47:24;;;;;;;29.08;16.55;;;10.90;91.20;;;;;;5127219;28;20060;-75
2022/04/30 06:49:57;;;;;;;23.25;15.63;;;11.00;90.40;;;;;;5145820;28;20038;-75
2022/04/30 06:52:30;;;;;;;21.80;15.02;;;11.20;90.00;;;;;;5146266;28;20041;-75
2022/04/30 06:57:54;;;;;;;22.65;15.98;;;11.60;89.10;;;;;;5149935;28;20045;-76
2022/04/30 07:01:26;;;;;;;26.60;16.47;;;11.70;87.30;;;;;;5143257;28;20053;-76
2022/04/30 07:03:31;;;;;;;23.40;16.75;;;11.80;86.80;;;;;;5149595;28;20058;-76
2022/04/30 07:06:04;;;;;;;26.17;16.92;;;12.00;86.70;;;;;;5156860;28;20049;-76
2022/04/30 07:08:37;;;;;;;23.52;15.63;;;12.00;84.70;;;;;;5147194;28;20056;-78
2022/04/30 07:11:09;;;;;;;24.10;15.70;;;12.30;84.30;;;;;;5155952;28;20052;-76
2022/04/30 07:13:43;;;;;;;21.63;15.73;;;12.50;83.40;;;;;;5152289;28;20509;-77
2022/04/30 07:16:16;;;;;;;26.65;16.88;;;12.60;81.90;;;;;;5127529;28;20060;-77
2022/04/30 07:18:48;;;;;;;23.60;16.52;;;12.70;81.40;;;;;;5153733;28;20050;-76
2022/04/30 07:21:21;;;;;;;24.48;16.88;;;12.80;82.60;;;;;;5161541;28;20049;-77
2022/04/30 07:23:54;;;;;;;21.65;17.48;;;12.80;81.20;;;;;;5147467;28;20866;-77
2022/04/30 07:26:27;;;;;;;24.83;17.33;;;12.70;80.80;;;;;;5148933;28;20048;-77
2022/04/30 07:28:59;;;;;;;24.83;17.40;;;12.70;80.80;;;;;;5151284;28;22132;-78
2022/04/30 07:31:32;;;;;;;28.33;17.05;;;12.80;80.50;;;;;;5131780;28;20384;-77
2022/04/30 07:34:05;;;;;;;23.25;17.20;;;13.00;80.30;;;;;;5160684;28;20049;-77
2022/04/30 07:36:37;;;;;;;23.20;17.02;;;13.10;80.30;;;;;;5158149;28;21804;-77
2022/04/30 07:39:10;;;;;;;24.35;16.20;;;13.30;79.90;;;;;;5154363;28;20069;-76
2022/04/30 07:41:43;;;;;;;26.42;17.33;;;13.30;79.70;;;;;;5153416;28;20049;-77
2022/04/30 07:44:16;;;;;;;29.00;18.92;;;13.30;79.30;;;;;;5156472;28;20053;-78
2022/04/30 07:46:49;;;;;;;26.15;16.65;;;13.30;78.50;;;;;;5154590;28;20667;-76
2022/04/30 07:49:21;;;;;;;24.33;16.98;;;13.30;78.90;;;;;;5157940;28;20049;-77
2022/04/30 07:51:55;;;;;;;25.88;18.08;;;13.40;79.10;;;;;;5142115;28;20050;-76
2022/04/30 07:54:28;;;;;;;25.77;17.45;;;13.40;79.00;;;;;;5157322;28;20041;-77
2022/04/30 07:57:00;;;;;;;22.23;16.88;;;13.50;78.60;;;;;;5157640;28;20044;-76
2022/04/30 07:59:33;;;;;;;26.02;16.60;;;13.50;78.80;;;;;;5154815;28;20061;-76
2022/04/30 08:02:18;;;;;;;23.48;16.58;;;13.60;79.50;;;;;;4573356;28;10001041;-76
2022/04/30 08:04:51;;;;;;;24.55;16.75;;;13.80;78.20;;;;;;5171732;28;20262;-77
2022/04/30 08:07:31;;;;;;;25.33;17.45;;;13.80;77.70;;;;;;5148833;28;20053;-76
2022/04/30 08:10:04;;;;;;;24.73;16.95;;;13.80;78.20;;;;;;5164290;28;20509;-76
2022/04/30 08:12:37;;;;;;;24.63;16.37;;;13.80;77.90;;;;;;5149200;28;20050;-76
2022/04/30 08:15:09;;;;;;;25.40;16.45;;;13.90;78.60;;;;;;5152361;28;20049;-76
2022/04/30 08:17:42;;;;;;;25.40;17.43;;;14.00;77.50;;;;;;5161975;28;20048;-77
2022/04/30 08:20:15;;;;;;;24.33;16.40;;;14.10;76.20;;;;;;5180385;28;20029;-77
2022/04/30 08:22:47;;;;;;;23.55;16.67;;;14.10;75.20;;;;;;5157341;28;20058;-76
2022/04/30 08:25:20;;;;;;;25.55;16.80;;;13.90;75.10;;;;;;5153538;28;20065;-76
2022/04/30 08:27:53;;;;;;;27.00;17.05;;;14.00;74.90;;;;;;5153600;28;20564;-76
2022/04/30 08:30:25;;;;;;;23.92;16.45;;;14.00;74.90;;;;;;5159225;28;20053;-77
2022/04/30 08:32:58;;;;;;;23.38;16.08;;;14.10;75.00;;;;;;5163177;28;20064;-76
2022/04/30 08:35:30;;;;;;;24.80;16.58;;;14.20;74.60;;;;;;5149548;28;20078;-77
2022/04/30 08:38:13;;;;;;;24.88;17.23;;;14.30;75.00;;;;;;5148864;28;20714;-77
2022/04/30 08:40:45;;;;;;;29.90;18.30;;;14.50;73.90;;;;;;5154321;28;20302;-77
2022/04/30 08:43:20;;;;;;;30.67;18.83;;;14.50;73.20;;;;;;5148687;28;20823;-77
2022/04/30 08:45:52;;;;;;;24.10;17.60;;;14.40;72.70;;;;;;5169725;28;20053;-77
2022/04/30 08:48:29;;;;;;;28.53;17.73;;;14.50;73.20;;;;;;5159965;28;20060;-77
2022/04/30 08:51:02;;;;;;;25.85;18.10;;;14.60;73.20;;;;;;5151761;28;20041;-77
2022/04/30 08:53:35;;;;;;;29.00;17.65;;;14.80;72.80;;;;;;5148311;28;20377;-77
2022/04/30 08:56:08;;;;;;;28.88;18.10;;;14.80;72.50;;;;;;5155939;28;20054;-77
2022/04/30 08:58:41;;;;;;;25.92;18.50;;;14.80;70.90;;;;;;5166158;28;21841;-76
2022/04/30 09:01:13;;;;;;;32.03;18.50;;;14.80;71.00;;;;;;5150649;28;20049;-76
2022/04/30 09:03:47;;;;;;;25.92;18.40;;;14.90;70.20;;;;;;5157283;28;20046;-77
2022/04/30 09:06:19;;;;;;;25.13;18.00;;;14.90;69.50;;;;;;5160030;28;20591;-76
2022/04/30 09:08:52;;;;;;;26.92;18.80;;;14.70;68.90;;;;;;5153441;28;20046;-76
2022/04/30 09:11:28;;;;;;;30.23;19.83;;;14.80;69.80;;;;;;5150937;28;20053;-78
2022/04/30 09:14:00;;;;;;;27.20;20.85;;;14.80;69.20;;;;;;5150955;28;20053;-77
2022/04/30 09:16:33;;;;;;;31.80;21.70;;;14.80;69.60;;;;;;5154400;28;20056;-77
2022/04/30 09:19:05;;;;;;;28.30;19.90;;;14.70;69.30;;;;;;5160314;28;20042;-77
2022/04/30 09:21:48;;;;;;;31.77;20.38;;;14.80;69.80;;;;;;5167275;28;20049;-77
2022/04/30 09:24:20;;;;;;;29.20;21.77;;;15.00;68.50;;;;;;5173237;28;20112;-77
2022/04/30 09:26:53;;;;;;;28.95;21.00;;;15.10;69.40;;;;;;5164284;28;20049;-77
2022/04/30 09:29:25;;;;;;;30.75;21.30;;;15.10;68.60;;;;;;5148295;28;20049;-76
2022/04/30 09:31:58;;;;;;;30.92;22.50;;;15.00;68.50;;;;;;5156812;28;20045;-76
2022/04/30 09:37:41;;;;;;;30.20;21.55;;;15.10;68.70;;;;;;5146121;28;20045;-76
2022/04/30 09:40:21;;;;;;;35.50;23.23;;;15.20;69.10;;;;;;5161414;28;20053;-76
2022/04/30 09:42:53;;;;;;;27.60;22.13;;;15.30;68.50;;;;;;5161491;28;20049;-77
2022/04/30 09:45:27;;;;;;;30.05;20.85;;;15.30;68.40;;;;;;5164918;28;20570;-77
2022/04/30 09:48:01;;;;;;;30.15;20.42;;;15.10;68.20;;;;;;5164833;28;20044;-76
2022/04/30 09:56:23;;;;;;;30.70;21.75;;;15.30;69.40;;;;;;5161805;28;20508;-77
2022/04/30 09:58:57;;;;;;;29.55;19.38;;;15.00;69.80;;;;;;5155497;28;20057;-77
2022/04/30 10:01:32;;;;;;;27.23;20.50;;;15.00;70.50;;;;;;5166173;28;20049;-77
2022/04/30 10:04:08;;;;;;;27.33;19.83;;;15.20;70.40;;;;;;5159913;28;20045;-77
2022/04/30 10:06:45;;;;;;;28.40;19.77;;;15.20;69.40;;;;;;5152382;28;20045;-75
2022/04/30 10:09:26;;;;;;;26.25;18.42;;;15.20;69.50;;;;;;5169800;28;20497;-76
2022/04/30 10:12:51;;;;;;;25.40;18.77;;;15.00;68.30;;;;;;5167543;28;20148;-77
2022/04/30 10:15:38;;;;;;;29.23;20.55;;;15.00;67.80;;;;;;5102879;28;20057;-76
2022/04/30 10:18:13;;;;;;;35.60;20.20;;;15.00;68.70;;;;;;5157848;28;20045;-76
2022/04/30 10:20:52;;;;;;;25.52;19.02;;;14.90;69.10;;;;;;5158407;28;22419;-77
2022/04/30 10:23:24;;;;;;;25.77;19.75;;;14.90;68.80;;;;;;5164453;28;20064;-77
2022/04/30 10:26:07;;;;;;;27.15;18.73;;;15.00;69.90;;;;;;5143865;28;20065;-77
2022/04/30 10:28:39;;;;;;;26.95;19.92;;;15.10;69.60;;;;;;5160810;28;20779;-77
2022/04/30 10:31:13;;;;;;;26.43;19.03;;;15.00;68.80;;;;;;5155892;28;20033;-77
2022/04/30 10:33:50;;;;;;;25.67;19.33;;;15.00;70.20;;;;;;5165694;28;20056;-76
2022/04/30 10:36:33;;;;;;;30.33;18.33;;;15.10;69.80;;;;;;5162631;28;20407;-77
2022/04/30 10:39:09;;;;;;;27.15;18.10;;;15.10;70.30;;;;;;4471162;28;10000226;-77
2022/04/30 10:41:43;;;;;;;23.00;17.50;;;15.00;70.60;;;;;;5158680;28;20056;-77
2022/04/30 10:44:26;;;;;;;;;;;15.00;70.80;;;;;;5166195;28;20056;-76
2022/04/30 10:47:14;;;;;;;24.77;18.80;;;14.90;71.40;;;;;;5158447;28;19925;-78
2022/04/30 10:49:49;;;;;;;27.45;18.95;;;14.90;70.50;;;;;;5154434;28;20076;-78
2022/04/30 10:52:24;;;;;;;22.55;17.40;;;14.80;71.00;;;;;;5161426;28;21066;-77
2022/04/30 10:54:58;;;;;;;25.60;17.90;;;14.70;71.40;;;;;;5158363;28;20050;-79
2022/04/30 10:57:41;;;;;;;25.33;17.52;;;14.80;71.80;;;;;;5154082;28;20049;-77
2022/04/30 11:00:14;;;;;;;29.52;17.88;;;14.80;72.60;;;;;;5151222;28;20061;-77
2022/04/30 11:02:52;;;;;;;27.92;18.98;;;14.80;71.40;;;;;;5154312;28;20056;-77
2022/04/30 11:05:25;;;;;;;22.25;16.73;;;14.70;71.20;;;;;;5160295;28;20057;-77
2022/04/30 11:08:03;;;;;;;22.27;16.83;;;14.70;71.60;;;;;;5155189;28;20061;-77
2022/04/30 11:10:35;;;;;;;26.10;18.33;;;14.80;72.30;;;;;;5167623;28;20053;-77
2022/04/30 11:13:08;;;;;;;20.70;15.75;;;14.80;72.60;;;;;;5157112;28;20073;-77
2022/04/30 11:15:40;;;;;;;21.80;15.73;;;14.90;73.10;;;;;;5152967;28;21072;-77
2022/04/30 11:18:16;;;;;;;20.77;16.77;;;15.00;72.70;;;;;;5150583;28;20034;-77
2022/04/30 11:20:48;;;;;;;22.30;16.65;;;14.90;73.70;;;;;;5149783;28;21592;-76
2022/04/30 11:23:23;;;;;;;20.98;16.65;;;14.80;74.50;;;;;;5151069;28;20466;-76
2022/04/30 11:25:55;;;;;;;20.77;16.20;;;14.90;76.60;;;;;;5148042;28;20622;-76
2022/04/30 11:28:29;;;;;;;23.75;17.65;;;15.00;78.10;;;;;;5151208;28;20493;-76
2022/04/30 11:31:02;;;;;;;22.17;17.35;;;14.90;79.30;;;;;;5150494;28;20057;-76
2022/04/30 11:33:36;;;;;;;24.48;18.52;;;14.90;79.60;;;;;;5147114;28;20560;-77
2022/04/30 11:36:09;;;;;;;22.40;17.42;;;14.90;79.70;;;;;;5145937;28;20795;-76
2022/04/30 11:38:53;;;;;;;21.58;16.80;;;14.90;80.20;;;;;;5156735;28;20048;-76
2022/04/30 11:41:26;;;;;;;;;;;15.00;81.30;;;;;;5157261;28;20057;-78
2022/04/30 11:43:59;;;;;;;22.88;17.73;;;15.00;80.10;;;;;;5154302;28;19929;-77
2022/04/30 11:46:31;;;;;;;25.45;17.52;;;15.00;79.40;;;;;;5167958;28;20064;-78
2022/04/30 11:49:09;;;;;;;20.85;16.23;;;14.90;79.80;;;;;;5160735;28;20049;-78
2022/04/30 11:52:02;;;;;;;24.55;16.55;;;15.00;80.00;;;;;;5149423;28;20041;-78
2022/04/30 11:54:38;;;;;;;21.27;16.50;;;14.90;79.70;;;;;;5149057;28;20045;-78
2022/04/30 11:57:13;;;;;;;22.75;16.65;;;14.80;79.40;;;;;;5162066;28;22353;-78
2022/04/30 11:59:46;;;;;;;23.02;17.15;;;14.70;79.20;;;;;;5175480;28;20041;-78
2022/04/30 12:02:20;;;;;;;21.93;16.50;;;14.60;81.00;;;;;;5154645;28;20045;-77
2022/04/30 12:04:53;;;;;;;19.35;16.00;;;14.60;81.00;;;;;;5159323;28;20295;-78
2022/04/30 12:07:35;;;;;;;23.27;16.67;;;14.60;81.50;;;;;;5165704;28;20041;-78
2022/04/30 12:10:14;;;;;;;20.30;15.00;;;14.40;78.90;;;;;;5165027;28;20053;-78
2022/04/30 12:12:47;;;;;;;22.42;16.02;;;14.30;80.60;;;;;;5155507;28;21724;-78
2022/04/30 12:15:20;;;;;;;21.05;16.88;;;14.10;81.20;;;;;;5166176;28;20053;-77
2022/04/30 12:26:58;;;;;;;19.33;14.03;;;14.00;80.60;;;;;;5166605;28;20050;-78
2022/04/30 12:29:32;;;;;;;18.15;13.90;;;14.00;80.50;;;;;;5166496;28;20053;-78
2022/04/30 12:32:07;;;;;;;20.35;14.93;;;13.90;80.90;;;;;;5153530;28;20041;-78
2022/04/30 12:34:41;;;;;;;18.52;14.43;;;13.80;80.50;;;;;;5151095;28;20046;-78
2022/04/30 12:37:13;;;;;;;21.63;13.27;;;13.70;81.50;;;;;;5150416;28;20128;-78
2022/04/30 12:39:46;;;;;;;14.60;11.48;;;13.60;80.50;;;;;;5153594;28;21950;-78
2022/04/30 12:42:19;;;;;;;18.77;11.90;;;13.50;80.40;;;;;;5169193;28;20053;-78
2022/04/30 12:44:52;;;;;;;16.40;12.13;;;13.30;80.70;;;;;;5159028;28;20053;-78
2022/04/30 12:47:24;;;;;;;18.42;11.73;;;13.20;81.10;;;;;;5164701;28;20053;-77
2022/04/30 12:49:56;;;;;;;16.85;12.95;;;13.30;82.60;;;;;;5161397;28;20175;-78
2022/04/30 12:52:29;;;;;;;17.48;12.38;;;13.20;83.10;;;;;;5162036;28;20056;-76
2022/04/30 12:55:01;;;;;;;17.05;12.88;;;13.20;84.10;;;;;;5169394;28;20060;-76
2022/04/30 12:57:33;;;;;;;17.40;12.60;;;13.30;85.40;;;;;;5178156;28;20045;-76
2022/04/30 13:00:10;;;;;;;16.55;12.07;;;13.30;85.20;;;;;;5204778;28;20064;-77
2022/04/30 13:02:44;;;;;;;17.92;12.75;;;13.30;85.70;;;;;;5157218;28;20053;-76
2022/04/30 13:05:17;;;;;;;;;;;13.30;86.70;;;;;;5143155;28;20076;-77
2022/04/30 13:07:49;;;;;;;18.92;12.55;;;13.20;87.30;;;;;;5170313;28;20408;-76
2022/04/30 13:13:31;;;;;;;21.17;13.23;;;13.20;87.60;;;;;;5165861;28;20065;-78
2022/04/30 13:16:07;;;;;;;20.38;14.27;;;13.20;88.80;;;;;;5160490;28;20042;-77
2022/04/30 13:18:41;;;;;;;20.08;13.05;;;13.20;88.90;;;;;;5170095;28;20062;-77
2022/04/30 13:21:14;;;;;;;17.05;13.18;;;13.20;87.10;;;;;;5166993;28;20046;-76
2022/04/30 13:23:46;;;;;;;22.05;13.70;;;13.20;87.10;;;;;;5169513;28;20049;-78
2022/04/30 13:26:22;;;;;;;18.05;13.30;;;13.30;87.70;;;;;;5163843;28;20061;-77
2022/04/30 13:28:55;;;;;;;22.73;13.43;;;13.30;89.50;;;;;;5162906;28;20064;-77
2022/04/30 13:31:27;;;;;;;18.10;12.82;;;13.20;86.70;;;;;;5162797;28;20042;-77
2022/04/30 13:33:59;;;;;;;16.92;12.98;;;13.30;85.70;;;;;;5161649;28;20052;-77
2022/04/30 13:36:33;;;;;;;17.52;12.65;;;13.50;88.20;;;;;;5155487;28;20049;-77
2022/04/30 13:39:06;;;;;;;;;;;13.50;87.50;;;;;;5157689;28;20049;-77
2022/04/30 13:41:38;;;;;;;20.75;13.55;;;13.50;89.00;;;;;;5155864;28;19935;-77
2022/04/30 13:44:10;;;;;;;19.15;13.13;;;13.60;89.80;;;;;;5180029;28;20910;-76
2022/04/30 13:46:43;;;;;;;19.23;13.20;;;13.80;88.60;;;;;;5158350;28;20060;-76
2022/04/30 13:49:24;;;;;;;18.35;13.10;;;13.70;85.20;;;;;;5156387;28;20057;-77
2022/04/30 13:51:56;;;;;;;17.80;13.27;;;13.80;86.20;;;;;;5158734;28;20053;-77
2022/04/30 13:54:28;;;;;;;17.38;13.15;;;13.80;87.40;;;;;;5149558;28;20081;-76